sensor_id;sensor_type;location;lat;lon;timestamp;P1;durP1;ratioP1;P2;durP2;ratioP2
72325;SDS011;60278;47.980;18.780;2022-11-27T00:01:37;41.95;;;19.35;;
72325;SDS011;60278;47.980;18.780;2022-11-27T00:05:09;37.85;;;20.67;;
72325;SDS011;60278;47.980;18.780;2022-11-27T00:08:41;35.88;;;19.35;;
72325;SDS011;60278;47.980;18.780;2022-11-27T00:12:12;36.40;;;18.53;;
72325;SDS011;60278;47.980;18.780;2022-11-27T00:15:43;35.05;;;18.10;;
72325;SDS011;60278;47.980;18.780;2022-11-27T00:19:15;32.00;;;16.90;;
72325;SDS011;60278;47.980;18.780;2022-11-27T00:22:46;35.20;;;17.60;;
72325;SDS011;60278;47.980;18.780;2022-11-27T00:26:17;32.08;;;17.67;;
72325;SDS011;60278;47.980;18.780;2022-11-27T00:29:48;39.78;;;18.25;;
72325;SDS011;60278;47.980;18.780;2022-11-27T00:33:19;37.37;;;18.50;;
72325;SDS011;60278;47.980;18.780;2022-11-27T00:36:50;35.50;;;19.15;;
72325;SDS011;60278;47.980;18.780;2022-11-27T00:40:21;44.53;;;22.20;;
72325;SDS011;60278;47.980;18.780;2022-11-27T00:43:52;32.72;;;18.08;;
72325;SDS011;60278;47.980;18.780;2022-11-27T00:47:24;36.63;;;17.27;;
72325;SDS011;60278;47.980;18.780;2022-11-27T00:50:59;32.70;;;16.02;;
72325;SDS011;60278;47.980;18.780;2022-11-27T00:54:34;29.05;;;16.70;;
72325;SDS011;60278;47.980;18.780;2022-11-27T00:58:05;29.90;;;16.27;;
72325;SDS011;60278;47.980;18.780;2022-11-27T01:01:37;36.22;;;18.70;;
72325;SDS011;60278;47.980;18.780;2022-11-27T01:05:10;35.08;;;17.52;;
72325;SDS011;60278;47.980;18.780;2022-11-27T01:08:41;30.27;;;16.20;;
72325;SDS011;60278;47.980;18.780;2022-11-27T01:12:13;36.60;;;18.15;;
72325;SDS011;60278;47.980;18.780;2022-11-27T01:15:44;40.90;;;19.60;;
72325;SDS011;60278;47.980;18.780;2022-11-27T01:19:15;39.17;;;18.75;;
72325;SDS011;60278;47.980;18.780;2022-11-27T01:22:46;40.13;;;17.90;;
72325;SDS011;60278;47.980;18.780;2022-11-27T01:26:17;43.05;;;20.58;;
72325;SDS011;60278;47.980;18.780;2022-11-27T01:29:48;36.25;;;17.50;;
72325;SDS011;60278;47.980;18.780;2022-11-27T01:33:19;57.07;;;18.40;;
72325;SDS011;60278;47.980;18.780;2022-11-27T01:36:50;51.95;;;19.20;;
72325;SDS011;60278;47.980;18.780;2022-11-27T01:40:21;37.00;;;18.38;;
72325;SDS011;60278;47.980;18.780;2022-11-27T01:47:33;44.53;;;17.63;;
72325;SDS011;60278;47.980;18.780;2022-11-27T01:51:09;43.08;;;17.80;;
72325;SDS011;60278;47.980;18.780;2022-11-27T01:54:42;41.53;;;15.95;;
72325;SDS011;60278;47.980;18.780;2022-11-27T01:58:23;36.27;;;17.07;;
72325;SDS011;60278;47.980;18.780;2022-11-27T02:01:57;47.30;;;17.67;;
72325;SDS011;60278;47.980;18.780;2022-11-27T02:05:29;55.63;;;16.90;;
72325;SDS011;60278;47.980;18.780;2022-11-27T02:09:00;53.50;;;19.37;;
72325;SDS011;60278;47.980;18.780;2022-11-27T02:39:13;50.58;;;19.23;;
72325;SDS011;60278;47.980;18.780;2022-11-27T02:42:49;43.45;;;19.58;;
72325;SDS011;60278;47.980;18.780;2022-11-27T02:46:33;34.57;;;16.60;;
72325;SDS011;60278;47.980;18.780;2022-11-27T02:50:05;26.45;;;14.55;;
72325;SDS011;60278;47.980;18.780;2022-11-27T02:53:42;31.80;;;15.30;;
72325;SDS011;60278;47.980;18.780;2022-11-27T02:57:17;29.97;;;16.93;;
72325;SDS011;60278;47.980;18.780;2022-11-27T03:00:50;30.00;;;15.07;;
72325;SDS011;60278;47.980;18.780;2022-11-27T03:04:23;24.48;;;14.00;;
72325;SDS011;60278;47.980;18.780;2022-11-27T03:08:03;35.75;;;18.17;;
72325;SDS011;60278;47.980;18.780;2022-11-27T03:11:37;30.87;;;17.70;;
72325;SDS011;60278;47.980;18.780;2022-11-27T03:15:09;33.88;;;18.98;;
72325;SDS011;60278;47.980;18.780;2022-11-27T03:22:20;32.43;;;17.40;;
72325;SDS011;60278;47.980;18.780;2022-11-27T03:25:51;39.42;;;19.65;;
72325;SDS011;60278;47.980;18.780;2022-11-27T03:29:32;35.30;;;20.08;;
72325;SDS011;60278;47.980;18.780;2022-11-27T03:33:06;51.93;;;23.67;;
72325;SDS011;60278;47.980;18.780;2022-11-27T03:36:37;56.08;;;25.52;;
72325;SDS011;60278;47.980;18.780;2022-11-27T03:40:08;58.13;;;27.15;;
72325;SDS011;60278;47.980;18.780;2022-11-27T03:43:41;56.97;;;25.75;;
72325;SDS011;60278;47.980;18.780;2022-11-27T03:47:34;67.20;;;27.50;;
72325;SDS011;60278;47.980;18.780;2022-11-27T03:58:51;31.63;;;15.23;;
72325;SDS011;60278;47.980;18.780;2022-11-27T04:02:29;27.77;;;13.98;;
72325;SDS011;60278;47.980;18.780;2022-11-27T04:06:08;37.28;;;14.15;;
72325;SDS011;60278;47.980;18.780;2022-11-27T04:09:39;34.93;;;13.30;;
72325;SDS011;60278;47.980;18.780;2022-11-27T04:13:10;30.45;;;13.60;;
72325;SDS011;60278;47.980;18.780;2022-11-27T04:16:41;42.13;;;14.70;;
72325;SDS011;60278;47.980;18.780;2022-11-27T04:20:12;30.50;;;14.95;;
72325;SDS011;60278;47.980;18.780;2022-11-27T04:23:44;42.30;;;15.80;;
72325;SDS011;60278;47.980;18.780;2022-11-27T04:27:15;42.45;;;18.27;;
72325;SDS011;60278;47.980;18.780;2022-11-27T04:30:49;30.27;;;15.98;;
72325;SDS011;60278;47.980;18.780;2022-11-27T04:34:22;37.97;;;14.57;;
72325;SDS011;60278;47.980;18.780;2022-11-27T04:37:54;28.83;;;14.60;;
72325;SDS011;60278;47.980;18.780;2022-11-27T04:41:26;30.50;;;16.17;;
72325;SDS011;60278;47.980;18.780;2022-11-27T04:44:58;45.27;;;17.20;;
72325;SDS011;60278;47.980;18.780;2022-11-27T04:48:29;37.60;;;15.32;;
72325;SDS011;60278;47.980;18.780;2022-11-27T04:52:00;26.20;;;14.38;;
72325;SDS011;60278;47.980;18.780;2022-11-27T04:55:31;30.98;;;14.73;;
72325;SDS011;60278;47.980;18.780;2022-11-27T04:59:03;32.43;;;16.03;;
72325;SDS011;60278;47.980;18.780;2022-11-27T05:02:34;29.75;;;15.82;;
72325;SDS011;60278;47.980;18.780;2022-11-27T05:06:05;31.60;;;15.82;;
72325;SDS011;60278;47.980;18.780;2022-11-27T05:09:37;33.57;;;16.00;;
72325;SDS011;60278;47.980;18.780;2022-11-27T05:13:08;34.97;;;16.77;;
72325;SDS011;60278;47.980;18.780;2022-11-27T05:16:46;39.67;;;16.55;;
72325;SDS011;60278;47.980;18.780;2022-11-27T05:20:19;29.10;;;14.77;;
72325;SDS011;60278;47.980;18.780;2022-11-27T05:23:50;26.08;;;15.35;;
72325;SDS011;60278;47.980;18.780;2022-11-27T05:27:21;34.95;;;17.58;;
72325;SDS011;60278;47.980;18.780;2022-11-27T05:30:52;43.67;;;20.13;;
72325;SDS011;60278;47.980;18.780;2022-11-27T05:34:23;48.07;;;21.13;;
72325;SDS011;60278;47.980;18.780;2022-11-27T05:37:54;46.63;;;21.92;;
72325;SDS011;60278;47.980;18.780;2022-11-27T05:41:25;55.58;;;25.77;;
72325;SDS011;60278;47.980;18.780;2022-11-27T05:44:56;62.40;;;28.33;;
72325;SDS011;60278;47.980;18.780;2022-11-27T05:48:27;46.97;;;23.63;;
72325;SDS011;60278;47.980;18.780;2022-11-27T05:51:58;45.78;;;23.92;;
72325;SDS011;60278;47.980;18.780;2022-11-27T05:55:29;44.57;;;20.50;;
72325;SDS011;60278;47.980;18.780;2022-11-27T05:59:01;32.78;;;17.83;;
72325;SDS011;60278;47.980;18.780;2022-11-27T06:02:32;39.80;;;18.23;;
72325;SDS011;60278;47.980;18.780;2022-11-27T06:06:04;29.25;;;15.70;;
72325;SDS011;60278;47.980;18.780;2022-11-27T06:09:37;27.47;;;14.53;;
72325;SDS011;60278;47.980;18.780;2022-11-27T06:13:08;32.05;;;15.02;;
72325;SDS011;60278;47.980;18.780;2022-11-27T06:16:39;36.38;;;12.75;;
72325;SDS011;60278;47.980;18.780;2022-11-27T06:20:10;28.50;;;14.07;;
72325;SDS011;60278;47.980;18.780;2022-11-27T06:23:41;37.35;;;17.52;;
72325;SDS011;60278;47.980;18.780;2022-11-27T06:27:13;41.80;;;18.67;;
72325;SDS011;60278;47.980;18.780;2022-11-27T06:30:44;31.07;;;14.33;;
72325;SDS011;60278;47.980;18.780;2022-11-27T06:34:15;30.35;;;15.73;;
72325;SDS011;60278;47.980;18.780;2022-11-27T06:37:46;30.20;;;14.70;;
72325;SDS011;60278;47.980;18.780;2022-11-27T06:41:18;31.20;;;15.70;;
72325;SDS011;60278;47.980;18.780;2022-11-27T06:44:50;38.37;;;16.03;;
72325;SDS011;60278;47.980;18.780;2022-11-27T06:48:21;85.45;;;25.13;;
72325;SDS011;60278;47.980;18.780;2022-11-27T06:51:52;38.85;;;19.27;;
72325;SDS011;60278;47.980;18.780;2022-11-27T06:55:23;85.53;;;33.77;;
72325;SDS011;60278;47.980;18.780;2022-11-27T06:58:55;46.50;;;18.92;;
72325;SDS011;60278;47.980;18.780;2022-11-27T07:02:28;38.47;;;19.27;;
72325;SDS011;60278;47.980;18.780;2022-11-27T07:06:00;31.17;;;15.20;;
72325;SDS011;60278;47.980;18.780;2022-11-27T07:09:32;27.70;;;13.73;;
72325;SDS011;60278;47.980;18.780;2022-11-27T07:13:03;26.42;;;13.45;;
72325;SDS011;60278;47.980;18.780;2022-11-27T07:16:34;29.73;;;14.70;;
72325;SDS011;60278;47.980;18.780;2022-11-27T07:20:06;23.87;;;12.27;;
72325;SDS011;60278;47.980;18.780;2022-11-27T07:23:37;26.95;;;13.13;;
72325;SDS011;60278;47.980;18.780;2022-11-27T07:27:08;26.80;;;13.60;;
72325;SDS011;60278;47.980;18.780;2022-11-27T07:30:39;46.60;;;17.90;;
72325;SDS011;60278;47.980;18.780;2022-11-27T07:34:10;71.97;;;23.45;;
72325;SDS011;60278;47.980;18.780;2022-11-27T07:37:41;27.70;;;12.40;;
72325;SDS011;60278;47.980;18.780;2022-11-27T07:41:12;55.03;;;20.87;;
72325;SDS011;60278;47.980;18.780;2022-11-27T07:44:44;35.92;;;15.85;;
72325;SDS011;60278;47.980;18.780;2022-11-27T07:48:15;45.45;;;16.77;;
72325;SDS011;60278;47.980;18.780;2022-11-27T07:51:46;42.08;;;19.70;;
72325;SDS011;60278;47.980;18.780;2022-11-27T07:55:17;46.60;;;17.83;;
72325;SDS011;60278;47.980;18.780;2022-11-27T07:58:48;30.77;;;13.95;;
72325;SDS011;60278;47.980;18.780;2022-11-27T08:02:19;29.85;;;14.98;;
72325;SDS011;60278;47.980;18.780;2022-11-27T08:05:50;39.13;;;14.27;;
72325;SDS011;60278;47.980;18.780;2022-11-27T08:09:21;28.42;;;14.98;;
72325;SDS011;60278;47.980;18.780;2022-11-27T08:12:52;30.80;;;11.80;;
72325;SDS011;60278;47.980;18.780;2022-11-27T08:16:23;31.70;;;12.27;;
72325;SDS011;60278;47.980;18.780;2022-11-27T08:19:54;36.25;;;18.08;;
72325;SDS011;60278;47.980;18.780;2022-11-27T08:23:25;27.30;;;12.55;;
72325;SDS011;60278;47.980;18.780;2022-11-27T08:26:56;32.90;;;15.05;;
72325;SDS011;60278;47.980;18.780;2022-11-27T08:30:27;26.43;;;11.50;;
72325;SDS011;60278;47.980;18.780;2022-11-27T08:33:58;27.45;;;16.17;;
72325;SDS011;60278;47.980;18.780;2022-11-27T08:37:29;27.15;;;12.75;;
72325;SDS011;60278;47.980;18.780;2022-11-27T08:41:01;22.93;;;10.97;;
72325;SDS011;60278;47.980;18.780;2022-11-27T08:44:34;27.27;;;10.70;;
72325;SDS011;60278;47.980;18.780;2022-11-27T08:48:05;25.13;;;10.73;;
72325;SDS011;60278;47.980;18.780;2022-11-27T08:51:36;20.40;;;10.97;;
72325;SDS011;60278;47.980;18.780;2022-11-27T08:55:07;20.95;;;9.75;;
72325;SDS011;60278;47.980;18.780;2022-11-27T08:58:38;20.80;;;9.13;;
72325;SDS011;60278;47.980;18.780;2022-11-27T09:02:10;19.52;;;10.10;;
72325;SDS011;60278;47.980;18.780;2022-11-27T09:05:42;22.63;;;9.77;;
72325;SDS011;60278;47.980;18.780;2022-11-27T09:09:14;23.00;;;9.70;;
72325;SDS011;60278;47.980;18.780;2022-11-27T09:12:46;23.10;;;10.52;;
72325;SDS011;60278;47.980;18.780;2022-11-27T09:16:19;23.27;;;11.37;;
72325;SDS011;60278;47.980;18.780;2022-11-27T09:19:51;22.80;;;10.95;;
72325;SDS011;60278;47.980;18.780;2022-11-27T09:23:22;23.77;;;11.30;;
72325;SDS011;60278;47.980;18.780;2022-11-27T09:26:53;20.70;;;11.13;;
72325;SDS011;60278;47.980;18.780;2022-11-27T09:30:24;24.40;;;11.05;;
72325;SDS011;60278;47.980;18.780;2022-11-27T09:33:56;21.17;;;10.43;;
72325;SDS011;60278;47.980;18.780;2022-11-27T09:37:28;19.73;;;9.68;;
72325;SDS011;60278;47.980;18.780;2022-11-27T09:41:00;22.97;;;9.73;;
72325;SDS011;60278;47.980;18.780;2022-11-27T09:44:38;19.95;;;9.75;;
72325;SDS011;60278;47.980;18.780;2022-11-27T09:48:36;19.20;;;8.80;;
72325;SDS011;60278;47.980;18.780;2022-11-27T09:55:49;22.50;;;10.68;;
72325;SDS011;60278;47.980;18.780;2022-11-27T09:59:24;25.58;;;11.48;;
72325;SDS011;60278;47.980;18.780;2022-11-27T10:03:04;25.30;;;11.47;;
72325;SDS011;60278;47.980;18.780;2022-11-27T10:14:30;21.92;;;9.32;;
72325;SDS011;60278;47.980;18.780;2022-11-27T10:18:15;19.33;;;8.57;;
72325;SDS011;60278;47.980;18.780;2022-11-27T10:25:50;22.67;;;9.13;;
72325;SDS011;60278;47.980;18.780;2022-11-27T10:29:43;22.37;;;8.27;;
72325;SDS011;60278;47.980;18.780;2022-11-27T10:33:26;21.13;;;9.35;;
72325;SDS011;60278;47.980;18.780;2022-11-27T10:37:22;18.80;;;7.45;;
72325;SDS011;60278;47.980;18.780;2022-11-27T10:41:20;18.13;;;8.13;;
72325;SDS011;60278;47.980;18.780;2022-11-27T10:44:59;22.10;;;11.02;;
72325;SDS011;60278;47.980;18.780;2022-11-27T10:48:34;21.33;;;9.38;;
72325;SDS011;60278;47.980;18.780;2022-11-27T10:52:16;19.98;;;9.25;;
72325;SDS011;60278;47.980;18.780;2022-11-27T10:56:04;20.50;;;10.40;;
72325;SDS011;60278;47.980;18.780;2022-11-27T11:00:20;20.00;;;9.07;;
72325;SDS011;60278;47.980;18.780;2022-11-27T11:03:37;21.77;;;9.75;;
72325;SDS011;60278;47.980;18.780;2022-11-27T11:07:24;19.90;;;9.17;;
72325;SDS011;60278;47.980;18.780;2022-11-27T11:11:00;19.20;;;9.50;;
72325;SDS011;60278;47.980;18.780;2022-11-27T11:14:34;20.20;;;8.30;;
72325;SDS011;60278;47.980;18.780;2022-11-27T11:18:14;18.87;;;9.70;;
72325;SDS011;60278;47.980;18.780;2022-11-27T11:21:46;24.05;;;10.18;;
72325;SDS011;60278;47.980;18.780;2022-11-27T11:25:18;18.48;;;9.52;;
72325;SDS011;60278;47.980;18.780;2022-11-27T11:28:52;21.95;;;10.02;;
72325;SDS011;60278;47.980;18.780;2022-11-27T11:32:34;21.00;;;9.60;;
72325;SDS011;60278;47.980;18.780;2022-11-27T11:36:07;20.88;;;10.23;;
72325;SDS011;60278;47.980;18.780;2022-11-27T11:39:43;22.10;;;9.52;;
72325;SDS011;60278;47.980;18.780;2022-11-27T11:43:28;16.40;;;8.47;;
72325;SDS011;60278;47.980;18.780;2022-11-27T11:47:01;22.20;;;9.20;;
72325;SDS011;60278;47.980;18.780;2022-11-27T11:50:34;21.40;;;10.05;;
72325;SDS011;60278;47.980;18.780;2022-11-27T11:54:20;18.87;;;9.33;;
72325;SDS011;60278;47.980;18.780;2022-11-27T11:58:29;22.92;;;10.55;;
72325;SDS011;60278;47.980;18.780;2022-11-27T12:09:45;20.10;;;9.47;;
72325;SDS011;60278;47.980;18.780;2022-11-27T12:14:15;24.73;;;9.52;;
72325;SDS011;60278;47.980;18.780;2022-11-27T12:21:42;19.53;;;8.97;;
72325;SDS011;60278;47.980;18.780;2022-11-27T12:44:11;25.67;;;11.57;;
72325;SDS011;60278;47.980;18.780;2022-11-27T12:51:53;24.38;;;11.68;;
72325;SDS011;60278;47.980;18.780;2022-11-27T12:55:27;27.02;;;11.82;;
72325;SDS011;60278;47.980;18.780;2022-11-27T13:06:27;29.48;;;11.98;;
72325;SDS011;60278;47.980;18.780;2022-11-27T13:14:18;33.83;;;14.05;;
72325;SDS011;60278;47.980;18.780;2022-11-27T13:17:54;31.52;;;12.95;;
72325;SDS011;60278;47.980;18.780;2022-11-27T13:21:32;30.83;;;13.75;;
72325;SDS011;60278;47.980;18.780;2022-11-27T13:25:05;27.13;;;11.67;;
72325;SDS011;60278;47.980;18.780;2022-11-27T13:28:39;26.42;;;12.15;;
72325;SDS011;60278;47.980;18.780;2022-11-27T13:32:20;25.65;;;12.07;;
72325;SDS011;60278;47.980;18.780;2022-11-27T13:36:06;27.13;;;11.23;;
72325;SDS011;60278;47.980;18.780;2022-11-27T13:39:47;32.72;;;12.60;;
72325;SDS011;60278;47.980;18.780;2022-11-27T13:43:24;26.67;;;11.18;;
72325;SDS011;60278;47.980;18.780;2022-11-27T13:47:06;28.67;;;12.43;;
72325;SDS011;60278;47.980;18.780;2022-11-27T13:50:52;28.92;;;11.48;;
72325;SDS011;60278;47.980;18.780;2022-11-27T13:54:23;26.60;;;11.27;;
72325;SDS011;60278;47.980;18.780;2022-11-27T13:57:55;23.95;;;10.45;;
72325;SDS011;60278;47.980;18.780;2022-11-27T14:01:27;24.73;;;10.30;;
72325;SDS011;60278;47.980;18.780;2022-11-27T14:04:58;28.45;;;10.82;;
72325;SDS011;60278;47.980;18.780;2022-11-27T14:08:31;34.22;;;12.63;;
72325;SDS011;60278;47.980;18.780;2022-11-27T14:12:18;27.83;;;11.93;;
72325;SDS011;60278;47.980;18.780;2022-11-27T14:16:06;26.85;;;11.18;;
72325;SDS011;60278;47.980;18.780;2022-11-27T14:19:56;26.83;;;11.15;;
72325;SDS011;60278;47.980;18.780;2022-11-27T14:23:30;26.10;;;11.20;;
72325;SDS011;60278;47.980;18.780;2022-11-27T14:27:22;23.55;;;11.68;;
72325;SDS011;60278;47.980;18.780;2022-11-27T14:30:58;29.52;;;13.07;;
72325;SDS011;60278;47.980;18.780;2022-11-27T14:34:30;38.55;;;16.05;;
72325;SDS011;60278;47.980;18.780;2022-11-27T14:38:06;35.90;;;14.07;;
72325;SDS011;60278;47.980;18.780;2022-11-27T14:41:39;50.45;;;22.20;;
72325;SDS011;60278;47.980;18.780;2022-11-27T14:45:15;32.33;;;14.63;;
72325;SDS011;60278;47.980;18.780;2022-11-27T14:48:49;28.57;;;13.40;;
72325;SDS011;60278;47.980;18.780;2022-11-27T14:52:27;26.83;;;12.50;;
72325;SDS011;60278;47.980;18.780;2022-11-27T14:55:58;29.85;;;13.93;;
72325;SDS011;60278;47.980;18.780;2022-11-27T14:59:29;30.07;;;13.27;;
72325;SDS011;60278;47.980;18.780;2022-11-27T15:03:08;33.13;;;13.20;;
72325;SDS011;60278;47.980;18.780;2022-11-27T15:06:41;32.25;;;14.80;;
72325;SDS011;60278;47.980;18.780;2022-11-27T15:10:23;31.45;;;13.88;;
72325;SDS011;60278;47.980;18.780;2022-11-27T15:14:00;36.43;;;13.77;;
72325;SDS011;60278;47.980;18.780;2022-11-27T15:17:33;30.17;;;13.35;;
72325;SDS011;60278;47.980;18.780;2022-11-27T15:21:10;35.42;;;12.98;;
72325;SDS011;60278;47.980;18.780;2022-11-27T15:24:45;27.33;;;11.80;;
72325;SDS011;60278;47.980;18.780;2022-11-27T15:28:33;25.27;;;12.05;;
72325;SDS011;60278;47.980;18.780;2022-11-27T15:35:50;31.80;;;12.37;;
72325;SDS011;60278;47.980;18.780;2022-11-27T15:39:22;32.35;;;11.88;;
72325;SDS011;60278;47.980;18.780;2022-11-27T15:43:14;22.58;;;11.43;;
72325;SDS011;60278;47.980;18.780;2022-11-27T15:46:45;31.20;;;12.25;;
72325;SDS011;60278;47.980;18.780;2022-11-27T15:50:17;29.90;;;13.33;;
72325;SDS011;60278;47.980;18.780;2022-11-27T15:53:48;34.85;;;14.82;;
72325;SDS011;60278;47.980;18.780;2022-11-27T15:57:19;40.47;;;16.95;;
72325;SDS011;60278;47.980;18.780;2022-11-27T16:00:50;43.77;;;19.47;;
72325;SDS011;60278;47.980;18.780;2022-11-27T16:04:21;37.75;;;15.70;;
72325;SDS011;60278;47.980;18.780;2022-11-27T16:07:52;37.85;;;16.70;;
72325;SDS011;60278;47.980;18.780;2022-11-27T16:11:23;34.73;;;15.03;;
72325;SDS011;60278;47.980;18.780;2022-11-27T16:14:56;28.13;;;14.10;;
72325;SDS011;60278;47.980;18.780;2022-11-27T16:18:27;29.63;;;14.25;;
72325;SDS011;60278;47.980;18.780;2022-11-27T16:21:58;23.35;;;12.73;;
72325;SDS011;60278;47.980;18.780;2022-11-27T16:25:30;27.07;;;12.43;;
72325;SDS011;60278;47.980;18.780;2022-11-27T16:29:06;24.10;;;12.68;;
72325;SDS011;60278;47.980;18.780;2022-11-27T16:32:38;30.27;;;14.13;;
72325;SDS011;60278;47.980;18.780;2022-11-27T16:36:11;41.77;;;20.07;;
72325;SDS011;60278;47.980;18.780;2022-11-27T16:39:44;57.70;;;25.20;;
72325;SDS011;60278;47.980;18.780;2022-11-27T16:43:16;52.45;;;25.35;;
72325;SDS011;60278;47.980;18.780;2022-11-27T16:46:47;37.57;;;19.03;;
72325;SDS011;60278;47.980;18.780;2022-11-27T16:50:20;40.40;;;21.60;;
72325;SDS011;60278;47.980;18.780;2022-11-27T16:53:52;35.28;;;17.95;;
72325;SDS011;60278;47.980;18.780;2022-11-27T16:57:25;32.22;;;17.25;;
72325;SDS011;60278;47.980;18.780;2022-11-27T17:00:56;31.40;;;17.30;;
72325;SDS011;60278;47.980;18.780;2022-11-27T17:04:27;33.13;;;16.58;;
72325;SDS011;60278;47.980;18.780;2022-11-27T17:07:58;31.08;;;16.25;;
72325;SDS011;60278;47.980;18.780;2022-11-27T17:11:30;41.00;;;22.40;;
72325;SDS011;60278;47.980;18.780;2022-11-27T17:15:04;41.03;;;19.13;;
72325;SDS011;60278;47.980;18.780;2022-11-27T17:18:36;46.38;;;21.85;;
72325;SDS011;60278;47.980;18.780;2022-11-27T17:22:10;48.70;;;22.53;;
72325;SDS011;60278;47.980;18.780;2022-11-27T17:25:41;51.25;;;27.00;;
72325;SDS011;60278;47.980;18.780;2022-11-27T17:29:14;58.90;;;28.73;;
72325;SDS011;60278;47.980;18.780;2022-11-27T17:32:47;69.78;;;32.58;;
72325;SDS011;60278;47.980;18.780;2022-11-27T17:36:19;63.93;;;33.93;;
72325;SDS011;60278;47.980;18.780;2022-11-27T17:39:50;79.90;;;36.50;;
72325;SDS011;60278;47.980;18.780;2022-11-27T17:43:22;74.80;;;34.80;;
72325;SDS011;60278;47.980;18.780;2022-11-27T17:46:55;76.17;;;36.37;;
72325;SDS011;60278;47.980;18.780;2022-11-27T17:50:27;85.50;;;37.95;;
72325;SDS011;60278;47.980;18.780;2022-11-27T17:53:58;98.30;;;40.50;;
72325;SDS011;60278;47.980;18.780;2022-11-27T17:57:34;101.63;;;44.83;;
72325;SDS011;60278;47.980;18.780;2022-11-27T18:01:06;69.10;;;28.92;;
72325;SDS011;60278;47.980;18.780;2022-11-27T18:04:43;58.95;;;29.50;;
72325;SDS011;60278;47.980;18.780;2022-11-27T18:08:14;42.50;;;22.52;;
72325;SDS011;60278;47.980;18.780;2022-11-27T18:11:45;53.53;;;23.13;;
72325;SDS011;60278;47.980;18.780;2022-11-27T18:15:17;49.20;;;24.23;;
72325;SDS011;60278;47.980;18.780;2022-11-27T18:18:48;57.63;;;27.25;;
72325;SDS011;60278;47.980;18.780;2022-11-27T18:22:20;66.00;;;29.00;;
72325;SDS011;60278;47.980;18.780;2022-11-27T18:25:50;65.35;;;30.48;;
72325;SDS011;60278;47.980;18.780;2022-11-27T18:29:21;52.22;;;28.15;;
72325;SDS011;60278;47.980;18.780;2022-11-27T18:32:52;65.67;;;28.73;;
72325;SDS011;60278;47.980;18.780;2022-11-27T18:36:24;58.03;;;29.08;;
72325;SDS011;60278;47.980;18.780;2022-11-27T18:39:55;79.80;;;31.02;;
72325;SDS011;60278;47.980;18.780;2022-11-27T18:43:26;71.40;;;30.45;;
72325;SDS011;60278;47.980;18.780;2022-11-27T18:46:57;72.37;;;34.67;;
72325;SDS011;60278;47.980;18.780;2022-11-27T18:50:28;80.40;;;35.92;;
72325;SDS011;60278;47.980;18.780;2022-11-27T18:54:00;82.53;;;35.83;;
72325;SDS011;60278;47.980;18.780;2022-11-27T18:57:31;86.93;;;36.43;;
72325;SDS011;60278;47.980;18.780;2022-11-27T19:01:07;86.32;;;36.90;;
72325;SDS011;60278;47.980;18.780;2022-11-27T19:04:39;69.85;;;31.23;;
72325;SDS011;60278;47.980;18.780;2022-11-27T19:08:12;71.30;;;29.50;;
72325;SDS011;60278;47.980;18.780;2022-11-27T19:11:43;65.10;;;28.13;;
72325;SDS011;60278;47.980;18.780;2022-11-27T19:15:14;68.45;;;30.40;;
72325;SDS011;60278;47.980;18.780;2022-11-27T19:18:46;59.70;;;30.42;;
72325;SDS011;60278;47.980;18.780;2022-11-27T19:22:17;62.17;;;29.70;;
72325;SDS011;60278;47.980;18.780;2022-11-27T19:25:50;56.90;;;26.08;;
72325;SDS011;60278;47.980;18.780;2022-11-27T19:29:21;51.05;;;25.52;;
72325;SDS011;60278;47.980;18.780;2022-11-27T19:32:52;57.33;;;24.47;;
72325;SDS011;60278;47.980;18.780;2022-11-27T19:36:23;41.58;;;20.95;;
72325;SDS011;60278;47.980;18.780;2022-11-27T19:39:56;42.00;;;20.73;;
72325;SDS011;60278;47.980;18.780;2022-11-27T19:43:28;42.37;;;23.60;;
72325;SDS011;60278;47.980;18.780;2022-11-27T19:46:59;40.95;;;21.10;;
72325;SDS011;60278;47.980;18.780;2022-11-27T19:50:32;62.45;;;27.92;;
72325;SDS011;60278;47.980;18.780;2022-11-27T19:54:03;51.65;;;26.08;;
72325;SDS011;60278;47.980;18.780;2022-11-27T19:57:37;37.30;;;20.17;;
72325;SDS011;60278;47.980;18.780;2022-11-27T20:01:10;44.72;;;22.77;;
72325;SDS011;60278;47.980;18.780;2022-11-27T20:04:46;55.55;;;23.40;;
72325;SDS011;60278;47.980;18.780;2022-11-27T20:08:17;30.57;;;18.27;;
72325;SDS011;60278;47.980;18.780;2022-11-27T20:11:49;40.28;;;18.05;;
72325;SDS011;60278;47.980;18.780;2022-11-27T20:15:20;37.80;;;19.42;;
72325;SDS011;60278;47.980;18.780;2022-11-27T20:18:53;40.30;;;19.70;;
72325;SDS011;60278;47.980;18.780;2022-11-27T20:22:24;35.03;;;17.42;;
72325;SDS011;60278;47.980;18.780;2022-11-27T20:25:56;40.28;;;17.45;;
72325;SDS011;60278;47.980;18.780;2022-11-27T20:29:27;43.83;;;22.25;;
72325;SDS011;60278;47.980;18.780;2022-11-27T20:32:59;43.73;;;21.27;;
72325;SDS011;60278;47.980;18.780;2022-11-27T20:36:30;50.60;;;21.60;;
72325;SDS011;60278;47.980;18.780;2022-11-27T20:40:03;43.75;;;23.00;;
72325;SDS011;60278;47.980;18.780;2022-11-27T20:43:35;52.07;;;23.37;;
72325;SDS011;60278;47.980;18.780;2022-11-27T20:47:07;50.22;;;24.35;;
72325;SDS011;60278;47.980;18.780;2022-11-27T20:50:38;60.00;;;27.80;;
72325;SDS011;60278;47.980;18.780;2022-11-27T20:54:09;58.80;;;29.23;;
72325;SDS011;60278;47.980;18.780;2022-11-27T20:57:41;65.10;;;32.90;;
72325;SDS011;60278;47.980;18.780;2022-11-27T21:01:16;60.55;;;29.20;;
72325;SDS011;60278;47.980;18.780;2022-11-27T21:04:52;73.15;;;29.23;;
72325;SDS011;60278;47.980;18.780;2022-11-27T21:08:23;63.13;;;26.10;;
72325;SDS011;60278;47.980;18.780;2022-11-27T21:11:54;61.25;;;28.52;;
72325;SDS011;60278;47.980;18.780;2022-11-27T21:15:25;64.68;;;29.67;;
72325;SDS011;60278;47.980;18.780;2022-11-27T21:18:58;56.90;;;29.03;;
72325;SDS011;60278;47.980;18.780;2022-11-27T21:22:31;66.18;;;31.00;;
72325;SDS011;60278;47.980;18.780;2022-11-27T21:26:03;61.60;;;30.52;;
72325;SDS011;60278;47.980;18.780;2022-11-27T21:29:35;61.10;;;30.17;;
72325;SDS011;60278;47.980;18.780;2022-11-27T21:33:07;53.28;;;25.98;;
72325;SDS011;60278;47.980;18.780;2022-11-27T21:36:38;54.20;;;29.00;;
72325;SDS011;60278;47.980;18.780;2022-11-27T21:40:09;56.88;;;30.20;;
72325;SDS011;60278;47.980;18.780;2022-11-27T21:43:41;65.60;;;29.50;;
72325;SDS011;60278;47.980;18.780;2022-11-27T21:47:12;66.63;;;31.92;;
72325;SDS011;60278;47.980;18.780;2022-11-27T21:50:43;59.85;;;29.83;;
72325;SDS011;60278;47.980;18.780;2022-11-27T21:54:15;64.33;;;28.83;;
72325;SDS011;60278;47.980;18.780;2022-11-27T21:57:47;64.53;;;28.88;;
72325;SDS011;60278;47.980;18.780;2022-11-27T22:01:19;64.05;;;32.35;;
72325;SDS011;60278;47.980;18.780;2022-11-27T22:04:51;62.67;;;33.60;;
72325;SDS011;60278;47.980;18.780;2022-11-27T22:08:23;45.83;;;25.13;;
72325;SDS011;60278;47.980;18.780;2022-11-27T22:11:54;45.88;;;22.58;;
72325;SDS011;60278;47.980;18.780;2022-11-27T22:15:25;39.63;;;18.90;;
72325;SDS011;60278;47.980;18.780;2022-11-27T22:18:56;41.40;;;19.70;;
72325;SDS011;60278;47.980;18.780;2022-11-27T22:22:29;38.20;;;20.23;;